Time;durP1;ratioP1;P1;durP2;ratioP2;P2;SDS_P1;SDS_P2;PMS_P1;PMS_P2;Temp;Humidity;BMP_temperature;BMP_pressure;BME280_temperature;BME280_humidity;BME280_pressure;Samples;Min_cycle;Max_cycle;Signal;HPM_P1;HPM_P2
2023/03/30 00:00:20;;;;;;;6.87;4.80;;;;;;;;;;5080024;28;20194;-72
2023/03/30 00:02:48;;;;;;;11.23;4.87;;;;;;;;;;5078503;28;20194;-72
2023/03/30 00:05:14;;;;;;;6.03;4.37;;;;;;;;;;5083608;28;20394;-71
2023/03/30 00:07:42;;;;;;;5.67;4.07;;;;;;;;;;5082555;28;20449;-72
2023/03/30 00:10:10;;;;;;;6.13;4.30;;;;;;;;;;5082397;28;20201;-72
2023/03/30 00:12:36;;;;;;;9.00;4.37;;;;;;;;;;5063505;28;20197;-71
2023/03/30 00:15:03;;;;;;;6.10;4.27;;;;;;;;;;5080788;28;20194;-71
2023/03/30 00:17:29;;;;;;;6.30;4.60;;;;;;;;;;5060279;28;20214;-71
2023/03/30 00:19:56;;;;;;;6.23;4.53;;;;;;;;;;5081016;28;20281;-72
2023/03/30 00:22:22;;;;;;;5.97;4.73;;;;;;;;;;5079401;28;20201;-72
2023/03/30 00:24:48;;;;;;;9.90;4.50;;;;;;;;;;5064490;28;20215;-72
2023/03/30 00:27:16;;;;;;;7.47;4.90;;;;;;;;;;5079473;28;20210;-72
2023/03/30 00:29:44;;;;;;;8.57;4.47;;;;;;;;;;5078088;28;20189;-73
2023/03/30 00:32:11;;;;;;;4.97;3.90;;;;;;;;;;5061510;28;20221;-72
2023/03/30 00:34:37;;;;;;;11.53;4.83;;;;;;;;;;5060401;28;20314;-72
2023/03/30 00:37:04;;;;;;;6.50;4.57;;;;;;;;;;5077793;28;20217;-73
2023/03/30 00:39:30;;;;;;;7.10;4.63;;;;;;;;;;5079901;28;20208;-74
2023/03/30 00:41:56;;;;;;;6.40;4.97;;;;;;;;;;5061731;28;20206;-73
2023/03/30 00:44:41;;;;;;;8.23;4.57;;;;;;;;;;5064212;28;20205;-72
2023/03/30 00:47:09;;;;;;;5.87;4.17;;;;;;;;;;5062173;28;20713;-72
2023/03/30 00:49:35;;;;;;;5.87;4.37;;;;;;;;;;5063945;28;20649;-72
2023/03/30 00:52:02;;;;;;;7.80;4.50;;;;;;;;;;5078742;28;20840;-72
2023/03/30 00:54:28;;;;;;;7.17;4.63;;;;;;;;;;5064510;28;20212;-72
2023/03/30 00:56:54;;;;;;;4.73;4.00;;;;;;;;;;5084243;28;20238;-73
2023/03/30 00:59:21;;;;;;;4.10;3.70;;;;;;;;;;5061139;28;20198;-73
2023/03/30 01:01:48;;;;;;;5.77;4.17;;;;;;;;;;5082667;28;20203;-72
2023/03/30 01:04:17;;;;;;;8.17;4.40;;;;;;;;;;5066433;28;20198;-73
2023/03/30 01:06:45;;;;;;;5.93;4.03;;;;;;;;;;5082631;28;20299;-72
2023/03/30 01:09:11;;;;;;;6.27;3.93;;;;;;;;;;5068015;28;20378;-73
2023/03/30 01:11:38;;;;;;;5.70;3.93;;;;;;;;;;5067277;28;20194;-73
2023/03/30 01:14:06;;;;;;;7.73;4.50;;;;;;;;;;5065214;28;20296;-72
2023/03/30 01:16:35;;;;;;;8.57;3.97;;;;;;;;;;5065690;28;20222;-72
2023/03/30 01:19:10;;;;;;;5.10;3.63;;;;;;;;;;5068130;28;20525;-72
2023/03/30 01:21:55;;;;;;;6.77;4.33;;;;;;;;;;5076586;28;20746;-72
2023/03/30 01:24:52;;;;;;;6.47;3.87;;;;;;;;;;5083589;28;20650;-72
2023/03/30 01:27:32;;;;;;;6.07;4.13;;;;;;;;;;5065181;28;20297;-72
2023/03/30 01:30:11;;;;;;;4.73;3.60;;;;;;;;;;5079290;28;20194;-73
2023/03/30 01:33:13;;;;;;;6.00;3.60;;;;;;;;;;5064108;28;20247;-72
2023/03/30 01:35:52;;;;;;;7.97;4.13;;;;;;;;;;4988704;28;20243;-72
2023/03/30 01:38:32;;;;;;;4.53;3.70;;;;;;;;;;4992500;28;20239;-72
2023/03/30 01:41:03;;;;;;;6.03;3.37;;;;;;;;;;5031556;28;20201;-73
2023/03/30 01:43:34;;;;;;;5.87;3.90;;;;;;;;;;5067145;28;20194;-72
2023/03/30 01:46:04;;;;;;;7.87;4.27;;;;;;;;;;5060419;28;20221;-72
2023/03/30 01:48:34;;;;;;;4.73;3.60;;;;;;;;;;5067344;28;20234;-72
2023/03/30 01:51:02;;;;;;;4.47;3.70;;;;;;;;;;5064582;28;20202;-72
2023/03/30 01:53:32;;;;;;;5.57;4.07;;;;;;;;;;5067910;28;20280;-74
2023/03/30 01:56:03;;;;;;;5.87;4.00;;;;;;;;;;5083132;28;20437;-72
2023/03/30 01:58:31;;;;;;;4.73;3.30;;;;;;;;;;5064697;28;20671;-73
2023/03/30 02:00:59;;;;;;;6.10;3.93;;;;;;;;;;5066262;28;20655;-72
2023/03/30 02:03:27;;;;;;;4.80;3.60;;;;;;;;;;5064944;28;20198;-72
2023/03/30 02:05:56;;;;;;;5.57;3.70;;;;;;;;;;5067093;28;20229;-72
2023/03/30 02:08:24;;;;;;;4.33;3.67;;;;;;;;;;5081294;28;20360;-72
2023/03/30 02:10:53;;;;;;;5.83;3.70;;;;;;;;;;5061559;28;20206;-72
2023/03/30 02:13:21;;;;;;;7.97;3.73;;;;;;;;;;5078593;28;20497;-73
2023/03/30 02:15:50;;;;;;;4.20;3.50;;;;;;;;;;5081130;28;20219;-73
2023/03/30 02:18:18;;;;;;;6.07;3.97;;;;;;;;;;5063907;28;20582;-72
2023/03/30 02:20:46;;;;;;;5.13;3.73;;;;;;;;;;5080734;28;20213;-75
2023/03/30 02:23:13;;;;;;;6.93;4.07;;;;;;;;;;5063407;28;20190;-72
2023/03/30 02:25:39;;;;;;;4.90;3.13;;;;;;;;;;5062422;28;20321;-73
2023/03/30 02:28:06;;;;;;;4.07;3.50;;;;;;;;;;5066582;28;20240;-73
2023/03/30 02:30:35;;;;;;;7.97;4.03;;;;;;;;;;5081927;28;20659;-72
2023/03/30 02:33:03;;;;;;;5.33;3.77;;;;;;;;;;5063016;28;20675;-74
2023/03/30 02:35:38;;;;;;;6.93;4.17;;;;;;;;;;5069166;28;20221;-72
2023/03/30 02:38:15;;;;;;;5.00;3.77;;;;;;;;;;5060918;28;21237;-74
2023/03/30 02:40:49;;;;;;;6.17;4.47;;;;;;;;;;5064394;28;20226;-73
2023/03/30 02:43:22;;;;;;;6.60;3.83;;;;;;;;;;5082051;28;20678;-73
2023/03/30 02:45:52;;;;;;;7.13;4.33;;;;;;;;;;5062084;28;21077;-72
2023/03/30 02:48:23;;;;;;;4.93;3.57;;;;;;;;;;5064842;28;20662;-72
2023/03/30 02:50:54;;;;;;;6.97;3.80;;;;;;;;;;5060368;28;20622;-73
2023/03/30 02:53:44;;;;;;;6.87;4.37;;;;;;;;;;5080986;28;20203;-72
2023/03/30 02:56:18;;;;;;;6.20;3.87;;;;;;;;;;5063084;28;20224;-73
2023/03/30 02:58:55;;;;;;;7.03;4.17;;;;;;;;;;5063775;28;20210;-73
2023/03/30 03:01:26;;;;;;;6.73;4.83;;;;;;;;;;5059999;28;20205;-74
2023/03/30 03:04:03;;;;;;;4.57;4.00;;;;;;;;;;5061138;28;20230;-73
2023/03/30 03:06:39;;;;;;;5.70;4.10;;;;;;;;;;5061045;28;20738;-73
2023/03/30 03:09:07;;;;;;;6.80;4.13;;;;;;;;;;5067172;28;20216;-73
2023/03/30 03:11:34;;;;;;;7.37;4.63;;;;;;;;;;5064372;28;20326;-73
2023/03/30 03:14:01;;;;;;;6.13;4.23;;;;;;;;;;5064735;28;20249;-73
2023/03/30 03:16:31;;;;;;;6.50;4.60;;;;;;;;;;5064196;28;20564;-73
2023/03/30 03:19:14;;;;;;;6.57;5.20;;;;;;;;;;5062332;28;20284;-75
2023/03/30 03:21:41;;;;;;;5.23;4.00;;;;;;;;;;5060672;28;20543;-73
2023/03/30 03:24:12;;;;;;;9.67;4.43;;;;;;;;;;5075206;28;20196;-73
2023/03/30 03:27:01;;;;;;;7.20;4.43;;;;;;;;;;5082252;28;20947;-73
2023/03/30 03:29:32;;;;;;;5.93;4.30;;;;;;;;;;5063651;28;20198;-73
2023/03/30 03:32:00;;;;;;;4.90;4.00;;;;;;;;;;5059234;28;20202;-73
2023/03/30 03:34:38;;;;;;;5.63;3.60;;;;;;;;;;5063086;28;20194;-74
2023/03/30 03:37:05;;;;;;;5.27;3.83;;;;;;;;;;5066231;28;20219;-73
2023/03/30 03:39:34;;;;;;;4.33;3.83;;;;;;;;;;5059588;28;20218;-73
2023/03/30 03:42:07;;;;;;;6.83;4.63;;;;;;;;;;5060795;28;20642;-73
2023/03/30 03:44:39;;;;;;;7.50;4.67;;;;;;;;;;5064478;28;20203;-73
2023/03/30 03:47:07;;;;;;;5.53;4.33;;;;;;;;;;5065140;28;20221;-73
2023/03/30 03:49:33;;;;;;;7.77;5.13;;;;;;;;;;5064320;28;20281;-73
2023/03/30 03:51:59;;;;;;;6.03;4.50;;;;;;;;;;5063953;28;20200;-73
2023/03/30 03:54:25;;;;;;;6.60;4.50;;;;;;;;;;5074217;28;20665;-73
2023/03/30 03:56:52;;;;;;;7.13;4.67;;;;;;;;;;5062956;28;20492;-73
2023/03/30 03:59:19;;;;;;;10.37;4.93;;;;;;;;;;5078653;28;20225;-74
2023/03/30 04:01:47;;;;;;;6.70;5.03;;;;;;;;;;5054002;28;20201;-74
2023/03/30 04:04:15;;;;;;;6.73;4.50;;;;;;;;;;5061321;28;20210;-73
2023/03/30 04:06:41;;;;;;;7.37;4.83;;;;;;;;;;5061383;28;20289;-73
2023/03/30 04:09:08;;;;;;;8.53;4.43;;;;;;;;;;5064037;28;20280;-73
2023/03/30 04:11:59;;;;;;;10.77;4.97;;;;;;;;;;5064144;28;20199;-75
2023/03/30 04:14:38;;;;;;;6.83;5.17;;;;;;;;;;5051691;28;20194;-73
2023/03/30 04:17:24;;;;;;;7.67;4.90;;;;;;;;;;5080638;28;20659;-73
2023/03/30 04:20:12;;;;;;;5.50;4.27;;;;;;;;;;5078696;28;20723;-73
2023/03/30 04:23:20;;;;;;;7.87;5.37;;;;;;;;;;5046111;28;20527;-73
2023/03/30 04:26:12;;;;;;;7.87;5.30;;;;;;;;;;5075476;28;20242;-73
2023/03/30 04:28:48;;;;;;;9.17;5.63;;;;;;;;;;5081513;28;20415;-73
2023/03/30 04:31:36;;;;;;;9.60;5.77;;;;;;;;;;5047028;28;20214;-73
2023/03/30 04:34:23;;;;;;;8.77;6.20;;;;;;;;;;5059227;28;20194;-73
2023/03/30 04:37:06;;;;;;;11.80;5.63;;;;;;;;;;5060756;28;20296;-74
2023/03/30 04:39:49;;;;;;;8.57;5.40;;;;;;;;;;5062766;28;20211;-73
2023/03/30 04:42:36;;;;;;;7.00;5.13;;;;;;;;;;5082304;28;20208;-73
2023/03/30 04:45:18;;;;;;;9.50;5.63;;;;;;;;;;5080015;28;20228;-73
2023/03/30 04:48:09;;;;;;;8.47;5.13;;;;;;;;;;5061853;28;20316;-73
2023/03/30 04:51:01;;;;;;;10.70;6.40;;;;;;;;;;5080434;28;20347;-73
2023/03/30 04:53:47;;;;;;;10.67;5.13;;;;;;;;;;5079683;28;20289;-73
2023/03/30 04:56:45;;;;;;;8.10;5.87;;;;;;;;;;5066951;28;20231;-73
2023/03/30 04:59:30;;;;;;;8.50;5.77;;;;;;;;;;5081087;28;20213;-73
2023/03/30 05:02:08;;;;;;;8.50;6.17;;;;;;;;;;5062650;28;20201;-73
2023/03/30 05:04:53;;;;;;;8.73;6.17;;;;;;;;;;5059906;28;20194;-73
2023/03/30 05:07:48;;;;;;;11.17;6.13;;;;;;;;;;5061113;28;20198;-73
2023/03/30 05:10:39;;;;;;;13.33;6.80;;;;;;;;;;5068011;28;20202;-73
2023/03/30 05:13:29;;;;;;;11.23;6.43;;;;;;;;;;5060824;28;20266;-73
2023/03/30 05:16:04;;;;;;;9.07;6.53;;;;;;;;;;5060307;28;20635;-73
2023/03/30 05:18:43;;;;;;;7.53;5.83;;;;;;;;;;5063172;28;20222;-73
2023/03/30 05:21:20;;;;;;;9.60;6.37;;;;;;;;;;5063079;28;20197;-73
2023/03/30 05:23:58;;;;;;;10.07;6.00;;;;;;;;;;5075846;28;20186;-73
2023/03/30 05:26:53;;;;;;;11.23;7.17;;;;;;;;;;5059838;28;20230;-72
2023/03/30 05:29:30;;;;;;;10.17;6.53;;;;;;;;;;5064207;28;20217;-73
2023/03/30 05:32:31;;;;;;;10.17;6.07;;;;;;;;;;4979750;28;20201;-75
2023/03/30 05:35:07;;;;;;;9.03;6.10;;;;;;;;;;5047536;28;20821;-73
2023/03/30 05:37:40;;;;;;;9.67;7.20;;;;;;;;;;5081687;28;20669;-72
2023/03/30 05:40:25;;;;;;;10.50;6.60;;;;;;;;;;5070569;28;20206;-73
2023/03/30 05:43:10;;;;;;;10.73;6.83;;;;;;;;;;5062371;28;20247;-72
2023/03/30 05:45:55;;;;;;;10.40;6.53;;;;;;;;;;5071767;28;20226;-72
2023/03/30 05:48:49;;;;;;;10.13;7.13;;;;;;;;;;5069578;28;20343;-74
2023/03/30 05:51:28;;;;;;;10.07;6.57;;;;;;;;;;5064402;28;20278;-73
2023/03/30 05:54:10;;;;;;;11.23;6.90;;;;;;;;;;5065138;28;20558;-73
2023/03/30 05:56:46;;;;;;;11.70;6.90;;;;;;;;;;5068011;28;20832;-72
2023/03/30 05:59:21;;;;;;;9.40;6.77;;;;;;;;;;5058782;28;20220;-73
2023/03/30 06:02:05;;;;;;;9.23;6.03;;;;;;;;;;5066937;28;20197;-72
2023/03/30 06:04:32;;;;;;;9.37;5.80;;;;;;;;;;5065245;28;20310;-75
2023/03/30 06:07:00;;;;;;;10.23;6.63;;;;;;;;;;5066458;28;20233;-73
2023/03/30 06:09:26;;;;;;;9.27;5.97;;;;;;;;;;5061625;28;20194;-72
2023/03/30 06:11:53;;;;;;;9.80;6.63;;;;;;;;;;5066717;28;20516;-72
2023/03/30 06:14:24;;;;;;;9.07;6.53;;;;;;;;;;5080895;28;20226;-72
2023/03/30 06:17:22;;;;;;;14.63;9.83;;;;;;;;;;5065536;28;20339;-73
2023/03/30 06:19:48;;;;;;;17.37;10.97;;;;;;;;;;5085311;28;20216;-73
2023/03/30 06:22:14;;;;;;;22.70;12.90;;;;;;;;;;5082279;28;20228;-74
2023/03/30 06:24:55;;;;;;;12.20;8.27;;;;;;;;;;5069629;28;20218;-72
2023/03/30 06:27:21;;;;;;;9.63;6.87;;;;;;;;;;5069052;28;20253;-72
2023/03/30 06:29:49;;;;;;;10.73;8.13;;;;;;;;;;5061942;28;20192;-72
2023/03/30 06:32:15;;;;;;;8.60;6.30;;;;;;;;;;5071022;28;20566;-72
2023/03/30 06:35:12;;;;;;;9.30;6.60;;;;;;;;;;5080858;28;20550;-72
2023/03/30 06:37:39;;;;;;;8.57;5.87;;;;;;;;;;5062541;28;20204;-72
2023/03/30 06:40:11;;;;;;;10.10;6.20;;;;;;;;;;5062803;28;20216;-73
2023/03/30 06:42:38;;;;;;;8.30;5.43;;;;;;;;;;5068710;28;20209;-72
2023/03/30 06:45:20;;;;;;;8.80;5.83;;;;;;;;;;5067429;28;20398;-75
2023/03/30 06:47:47;;;;;;;10.40;6.97;;;;;;;;;;5070222;28;20366;-73
2023/03/30 06:50:15;;;;;;;8.93;6.33;;;;;;;;;;5063648;28;20254;-72
2023/03/30 06:52:59;;;;;;;9.57;6.13;;;;;;;;;;5085593;28;20249;-74
2023/03/30 06:55:31;;;;;;;8.53;5.93;;;;;;;;;;5062539;28;20322;-75
2023/03/30 06:57:58;;;;;;;9.03;6.20;;;;;;;;;;5068529;28;20725;-73
2023/03/30 07:00:26;;;;;;;10.43;6.03;;;;;;;;;;5064652;28;20481;-73
2023/03/30 07:03:11;;;;;;;7.87;6.03;;;;;;;;;;5080438;28;20231;-73
2023/03/30 07:05:49;;;;;;;7.93;5.50;;;;;;;;;;5062020;28;20229;-73
2023/03/30 07:08:24;;;;;;;7.27;5.30;;;;;;;;;;5057261;28;20198;-72
2023/03/30 07:10:53;;;;;;;7.27;5.00;;;;;;;;;;5061738;28;20251;-73
2023/03/30 07:13:22;;;;;;;8.20;5.13;;;;;;;;;;5066324;28;20200;-73
2023/03/30 07:15:52;;;;;;;13.87;6.00;;;;;;;;;;5061997;28;20340;-73
2023/03/30 07:18:18;;;;;;;7.83;5.93;;;;;;;;;;5067523;28;20651;-73
2023/03/30 07:20:45;;;;;;;7.73;5.50;;;;;;;;;;5066512;28;20270;-74
2023/03/30 07:23:16;;;;;;;7.90;5.37;;;;;;;;;;5068169;28;20194;-73
2023/03/30 07:25:45;;;;;;;8.33;6.17;;;;;;;;;;5064191;28;20308;-74
2023/03/30 07:28:26;;;;;;;9.60;5.17;;;;;;;;;;5064219;28;20662;-73
2023/03/30 07:30:54;;;;;;;7.73;5.30;;;;;;;;;;5078703;28;20281;-73
2023/03/30 07:33:23;;;;;;;8.63;5.50;;;;;;;;;;5059087;28;20225;-73
2023/03/30 07:35:50;;;;;;;7.17;5.17;;;;;;;;;;5061590;28;20559;-74
2023/03/30 07:38:21;;;;;;;9.13;5.20;;;;;;;;;;5065081;28;20190;-73
2023/03/30 07:40:51;;;;;;;7.63;4.90;;;;;;;;;;5063831;28;20218;-73
2023/03/30 07:43:19;;;;;;;7.00;4.57;;;;;;;;;;5060917;28;20202;-73
2023/03/30 07:45:45;;;;;;;9.53;4.80;;;;;;;;;;5063089;28;20221;-73
2023/03/30 07:48:19;;;;;;;6.37;4.20;;;;;;;;;;5062761;28;20202;-72
2023/03/30 07:50:46;;;;;;;6.07;4.30;;;;;;;;;;5075637;28;20194;-75
2023/03/30 07:53:12;;;;;;;5.77;4.23;;;;;;;;;;5074271;28;20274;-73
2023/03/30 07:55:40;;;;;;;8.30;4.53;;;;;;;;;;5059946;28;20218;-72
2023/03/30 07:58:14;;;;;;;7.53;4.17;;;;;;;;;;5064240;28;20765;-73
2023/03/30 08:00:41;;;;;;;8.40;4.60;;;;;;;;;;5060882;28;20724;-73
2023/03/30 08:03:30;;;;;;;6.80;4.10;;;;;;;;;;5077975;28;20196;-73
2023/03/30 08:05:58;;;;;;;6.17;3.83;;;;;;;;;;5081087;28;20673;-73
2023/03/30 08:08:27;;;;;;;6.87;3.97;;;;;;;;;;5080966;28;20203;-72
2023/03/30 08:10:53;;;;;;;8.63;3.83;;;;;;;;;;5063847;28;20185;-73
2023/03/30 08:13:20;;;;;;;5.90;3.80;;;;;;;;;;5074657;28;20238;-73
2023/03/30 08:15:46;;;;;;;7.63;3.60;;;;;;;;;;5062458;28;20231;-73
2023/03/30 08:18:13;;;;;;;7.40;3.87;;;;;;;;;;5085189;28;20650;-73
2023/03/30 08:20:41;;;;;;;8.07;4.67;;;;;;;;;;5065276;28;20240;-73
2023/03/30 08:23:09;;;;;;;10.23;4.90;;;;;;;;;;5065477;28;20227;-73
2023/03/30 08:25:35;;;;;;;7.57;4.33;;;;;;;;;;5079596;28;20718;-73
2023/03/30 08:28:03;;;;;;;8.80;4.20;;;;;;;;;;5079923;28;20617;-75
2023/03/30 08:30:29;;;;;;;7.00;4.53;;;;;;;;;;5084170;28;20556;-73
2023/03/30 08:32:57;;;;;;;4.87;3.50;;;;;;;;;;5081628;28;20197;-73
2023/03/30 08:35:23;;;;;;;4.07;3.20;;;;;;;;;;5061615;28;20323;-73
2023/03/30 08:37:51;;;;;;;5.33;3.10;;;;;;;;;;5075263;28;20209;-73
2023/03/30 08:40:17;;;;;;;6.77;3.57;;;;;;;;;;5079286;28;20275;-75
2023/03/30 08:42:56;;;;;;;4.27;3.20;;;;;;;;;;5066124;28;20202;-73
2023/03/30 08:45:23;;;;;;;8.03;3.20;;;;;;;;;;5079664;28;20270;-73
2023/03/30 08:47:51;;;;;;;6.07;3.33;;;;;;;;;;5062390;28;20216;-73
2023/03/30 08:50:18;;;;;;;5.77;3.80;;;;;;;;;;5081669;28;20201;-73
2023/03/30 08:52:44;;;;;;;5.53;3.47;;;;;;;;;;5062640;28;20201;-73
2023/03/30 08:55:21;;;;;;;4.20;2.90;;;;;;;;;;5063973;28;20217;-73
2023/03/30 08:57:51;;;;;;;4.23;2.43;;;;;;;;;;5063858;28;20288;-73
2023/03/30 09:00:26;;;;;;;6.17;3.07;;;;;;;;;;5072525;28;20219;-75
2023/03/30 09:02:55;;;;;;;4.57;2.70;;;;;;;;;;5084238;28;20190;-74
2023/03/30 09:05:22;;;;;;;3.37;2.47;;;;;;;;;;5075938;28;20315;-75
2023/03/30 09:07:52;;;;;;;5.00;2.20;;;;;;;;;;5076100;28;20284;-73
2023/03/30 09:10:21;;;;;;;3.90;2.57;;;;;;;;;;5080228;28;20199;-73
2023/03/30 09:12:48;;;;;;;4.33;2.17;;;;;;;;;;5065338;28;20613;-73
2023/03/30 09:15:16;;;;;;;5.77;2.60;;;;;;;;;;5062135;28;20240;-75
2023/03/30 09:17:45;;;;;;;5.13;2.07;;;;;;;;;;5086988;28;20208;-73
2023/03/30 09:20:13;;;;;;;4.80;2.17;;;;;;;;;;5068281;28;20221;-72
2023/03/30 09:22:41;;;;;;;2.20;1.80;;;;;;;;;;5063899;28;20228;-72
2023/03/30 09:25:16;;;;;;;1.93;1.70;;;;;;;;;;5067498;28;20293;-72
2023/03/30 09:27:45;;;;;;;3.27;2.13;;;;;;;;;;5067447;28;20207;-72
2023/03/30 09:30:17;;;;;;;4.50;2.17;;;;;;;;;;5081300;28;20217;-72
2023/03/30 09:32:45;;;;;;;3.90;2.33;;;;;;;;;;5082664;28;20215;-73
2023/03/30 09:35:14;;;;;;;4.20;2.00;;;;;;;;;;5073069;28;20461;-73
2023/03/30 09:37:40;;;;;;;5.53;2.93;;;;;;;;;;5064070;28;20198;-72
2023/03/30 09:40:17;;;;;;;8.93;5.27;;;;;;;;;;5080382;28;20682;-73
2023/03/30 09:42:49;;;;;;;9.40;5.60;;;;;;;;;;5082445;28;20204;-73
2023/03/30 09:45:18;;;;;;;7.03;5.60;;;;;;;;;;5083440;28;20227;-74
2023/03/30 09:47:44;;;;;;;8.13;5.13;;;;;;;;;;5081018;28;20205;-73
2023/03/30 09:50:11;;;;;;;7.10;4.03;;;;;;;;;;5078190;28;20193;-74
2023/03/30 09:52:53;;;;;;;7.20;3.80;;;;;;;;;;5084580;28;20334;-73
2023/03/30 09:55:25;;;;;;;4.47;2.30;;;;;;;;;;5066786;28;20221;-73
2023/03/30 09:57:53;;;;;;;4.57;2.07;;;;;;;;;;5078545;28;20211;-73
2023/03/30 10:00:23;;;;;;;3.67;2.20;;;;;;;;;;5082605;28;20205;-73
2023/03/30 10:02:54;;;;;;;2.13;1.63;;;;;;;;;;5083300;28;20459;-73
2023/03/30 10:05:21;;;;;;;5.57;2.10;;;;;;;;;;5080228;28;20232;-73
2023/03/30 10:07:52;;;;;;;3.13;2.03;;;;;;;;;;5080118;28;20287;-73
2023/03/30 10:10:29;;;;;;;3.57;1.80;;;;;;;;;;5064802;28;20204;-74
2023/03/30 10:13:01;;;;;;;2.63;1.70;;;;;;;;;;5061465;28;20658;-76
2023/03/30 10:15:30;;;;;;;5.00;1.80;;;;;;;;;;5079618;28;20708;-73
2023/03/30 10:18:00;;;;;;;4.30;2.00;;;;;;;;;;5068933;28;20573;-74
2023/03/30 10:20:29;;;;;;;3.83;1.60;;;;;;;;;;5064763;28;20456;-73
2023/03/30 10:22:56;;;;;;;5.57;1.93;;;;;;;;;;5083208;28;20196;-73
2023/03/30 10:25:23;;;;;;;4.17;1.60;;;;;;;;;;5080213;28;20298;-73
2023/03/30 10:27:52;;;;;;;4.43;1.70;;;;;;;;;;5082366;28;20202;-72
2023/03/30 10:30:23;;;;;;;5.30;1.90;;;;;;;;;;5079022;28;20255;-72
2023/03/30 10:32:50;;;;;;;3.73;1.40;;;;;;;;;;5081573;28;20190;-71
2023/03/30 10:35:18;;;;;;;2.73;1.70;;;;;;;;;;5080162;28;20221;-71
2023/03/30 10:37:46;;;;;;;2.90;1.47;;;;;;;;;;5084752;28;20205;-73
2023/03/30 10:40:16;;;;;;;3.77;1.90;;;;;;;;;;5065021;28;20577;-72
2023/03/30 10:42:43;;;;;;;3.27;1.70;;;;;;;;;;5079328;28;20760;-72
2023/03/30 10:45:15;;;;;;;6.20;1.70;;;;;;;;;;5079828;28;20688;-73
2023/03/30 10:47:50;;;;;;;2.47;1.53;;;;;;;;;;5067703;28;20667;-73
2023/03/30 10:50:22;;;;;;;4.60;1.70;;;;;;;;;;5077513;28;20186;-72
2023/03/30 10:52:52;;;;;;;6.13;1.67;;;;;;;;;;5082626;28;20703;-72
2023/03/30 10:55:22;;;;;;;4.23;1.77;;;;;;;;;;5082677;28;20213;-73
2023/03/30 10:57:51;;;;;;;6.60;2.20;;;;;;;;;;5082379;28;20654;-72
2023/03/30 11:00:42;;;;;;;5.53;1.80;;;;;;;;;;5074897;28;20213;-75
2023/03/30 11:03:11;;;;;;;4.60;1.70;;;;;;;;;;5077332;28;20205;-72
2023/03/30 11:05:40;;;;;;;4.40;1.70;;;;;;;;;;5084074;28;20241;-73
2023/03/30 11:08:07;;;;;;;4.43;1.97;;;;;;;;;;5081135;28;20213;-74
2023/03/30 11:10:36;;;;;;;5.10;2.10;;;;;;;;;;5078041;28;20679;-73
2023/03/30 11:13:04;;;;;;;5.67;2.23;;;;;;;;;;5077965;28;20195;-73
2023/03/30 11:15:33;;;;;;;3.10;1.90;;;;;;;;;;5061850;28;20224;-73
2023/03/30 11:18:02;;;;;;;3.87;1.90;;;;;;;;;;5071596;28;20251;-71
2023/03/30 11:20:33;;;;;;;5.97;1.57;;;;;;;;;;5081446;28;20222;-72
2023/03/30 11:23:03;;;;;;;3.50;1.50;;;;;;;;;;5077160;28;20199;-72
2023/03/30 11:25:32;;;;;;;4.10;1.80;;;;;;;;;;5080253;28;20221;-72
2023/03/30 11:28:01;;;;;;;3.23;1.50;;;;;;;;;;5063411;28;20198;-72
2023/03/30 11:30:29;;;;;;;3.43;1.47;;;;;;;;;;5080610;28;20185;-72
2023/03/30 11:32:57;;;;;;;3.57;1.43;;;;;;;;;;5066863;28;20745;-72
2023/03/30 11:35:26;;;;;;;3.37;1.30;;;;;;;;;;5082990;28;20219;-72
2023/03/30 11:37:57;;;;;;;3.63;1.33;;;;;;;;;;5080047;28;20511;-73
2023/03/30 11:40:26;;;;;;;3.63;1.40;;;;;;;;;;5079604;28;20643;-73
2023/03/30 11:42:52;;;;;;;3.23;1.50;;;;;;;;;;5083661;28;20602;-73
2023/03/30 11:45:25;;;;;;;3.63;1.43;;;;;;;;;;5077126;28;20221;-72
2023/03/30 11:48:00;;;;;;;2.67;1.53;;;;;;;;;;5078197;28;20686;-72
2023/03/30 11:50:31;;;;;;;4.97;1.43;;;;;;;;;;5075240;28;20230;-74
2023/03/30 11:53:06;;;;;;;3.23;1.27;;;;;;;;;;5066532;28;20285;-72
2023/03/30 11:55:48;;;;;;;4.07;1.40;;;;;;;;;;5065885;28;20228;-73
2023/03/30 11:58:17;;;;;;;2.90;1.10;;;;;;;;;;5080310;28;20205;-73
2023/03/30 12:00:48;;;;;;;2.13;1.50;;;;;;;;;;5080870;28;20218;-74
2023/03/30 12:03:20;;;;;;;3.03;1.47;;;;;;;;;;5067172;28;20201;-72
2023/03/30 12:05:48;;;;;;;1.70;1.13;;;;;;;;;;5078186;28;20957;-74
2023/03/30 12:08:25;;;;;;;3.40;1.50;;;;;;;;;;5081601;28;20201;-72
2023/03/30 12:10:55;;;;;;;5.33;1.43;;;;;;;;;;5061681;28;20284;-72
2023/03/30 12:13:21;;;;;;;2.37;1.30;;;;;;;;;;5057074;28;20205;-72
2023/03/30 12:15:50;;;;;;;4.10;1.80;;;;;;;;;;5080903;28;20305;-73
2023/03/30 12:18:23;;;;;;;3.70;1.23;;;;;;;;;;5084492;28;20200;-72
2023/03/30 12:20:53;;;;;;;3.83;1.30;;;;;;;;;;5078058;28;20217;-72
2023/03/30 12:23:31;;;;;;;3.57;1.97;;;;;;;;;;5067537;28;20257;-72
2023/03/30 12:26:05;;;;;;;2.27;1.40;;;;;;;;;;5059873;28;20595;-73
2023/03/30 12:28:43;;;;;;;5.53;1.67;;;;;;;;;;5064195;28;20198;-72
2023/03/30 12:31:10;;;;;;;4.30;1.60;;;;;;;;;;5083756;28;20189;-73
2023/03/30 12:33:43;;;;;;;2.50;1.33;;;;;;;;;;5079353;28;20230;-74
2023/03/30 12:36:24;;;;;;;2.27;1.10;;;;;;;;;;5081035;28;20221;-72
2023/03/30 12:38:56;;;;;;;3.17;1.40;;;;;;;;;;5080467;28;20203;-73
2023/03/30 12:41:24;;;;;;;3.57;1.67;;;;;;;;;;5079030;28;20213;-72
2023/03/30 12:44:02;;;;;;;2.40;1.30;;;;;;;;;;5079352;28;20197;-72
2023/03/30 12:46:30;;;;;;;2.33;1.50;;;;;;;;;;5066639;28;20236;-73
2023/03/30 12:49:00;;;;;;;3.57;1.97;;;;;;;;;;5081890;28;20208;-72
2023/03/30 12:51:37;;;;;;;3.10;1.70;;;;;;;;;;5085229;28;20213;-72
2023/03/30 12:54:12;;;;;;;1.60;1.30;;;;;;;;;;5081111;28;20190;-72
2023/03/30 12:56:42;;;;;;;2.30;1.60;;;;;;;;;;5080549;28;20221;-73
2023/03/30 12:59:26;;;;;;;3.23;1.63;;;;;;;;;;5066234;28;20217;-74
2023/03/30 13:01:59;;;;;;;3.07;1.30;;;;;;;;;;5068561;28;20724;-72
2023/03/30 13:04:28;;;;;;;3.90;1.50;;;;;;;;;;5081529;28;20202;-72
2023/03/30 13:06:56;;;;;;;3.57;1.30;;;;;;;;;;5062319;22;20227;-72
2023/03/30 13:09:35;;;;;;;4.83;1.53;;;;;;;;;;5053814;28;20219;-72
2023/03/30 13:12:22;;;;;;;3.33;1.63;;;;;;;;;;5046102;28;20481;-72
2023/03/30 13:14:57;;;;;;;4.13;1.30;;;;;;;;;;5048599;28;20202;-72
2023/03/30 13:17:25;;;;;;;3.50;1.67;;;;;;;;;;5047110;28;20269;-72
2023/03/30 13:20:05;;;;;;;2.27;1.30;;;;;;;;;;5037344;28;20350;-73
2023/03/30 13:22:31;;;;;;;3.67;1.57;;;;;;;;;;5046750;28;20219;-72
2023/03/30 13:25:00;;;;;;;2.67;1.43;;;;;;;;;;5029782;28;20200;-73
2023/03/30 13:27:29;;;;;;;3.97;1.70;;;;;;;;;;5045348;28;20234;-72
2023/03/30 13:29:56;;;;;;;4.83;1.70;;;;;;;;;;5048571;28;20223;-73
2023/03/30 13:32:30;;;;;;;2.53;1.63;;;;;;;;;;5047720;28;20203;-72
2023/03/30 13:35:14;;;;;;;2.83;1.77;;;;;;;;;;5047489;28;20205;-72
2023/03/30 13:37:51;;;;;;;2.30;1.43;;;;;;;;;;5042451;28;20235;-72
2023/03/30 13:40:21;;;;;;;4.03;2.03;;;;;;;;;;5050208;28;20221;-73
2023/03/30 13:42:53;;;;;;;4.43;1.90;;;;;;;;;;5051603;28;20617;-73
2023/03/30 13:45:30;;;;;;;3.00;1.90;;;;;;;;;;5044230;28;20194;-72
2023/03/30 13:48:07;;;;;;;3.73;1.97;;;;;;;;;;5052412;28;20210;-73
2023/03/30 13:50:34;;;;;;;6.60;2.10;;;;;;;;;;5044619;28;20203;-73
2023/03/30 13:53:01;;;;;;;3.27;2.13;;;;;;;;;;5048638;28;20282;-73
2023/03/30 13:55:30;;;;;;;3.07;1.83;;;;;;;;;;5049332;28;20219;-72
2023/03/30 13:57:59;;;;;;;4.83;2.20;;;;;;;;;;5046543;28;20566;-72
2023/03/30 14:00:32;;;;;;;2.77;2.07;;;;;;;;;;5050251;28;20199;-72
2023/03/30 14:02:58;;;;;;;4.00;2.23;;;;;;;;;;5048200;28;20219;-73
2023/03/30 14:05:26;;;;;;;4.27;2.10;;;;;;;;;;5051489;28;20200;-73
2023/03/30 14:07:55;;;;;;;3.27;1.80;;;;;;;;;;5037819;28;20207;-73
2023/03/30 14:10:22;;;;;;;5.47;2.17;;;;;;;;;;5044203;28;20195;-72
2023/03/30 14:12:52;;;;;;;4.60;2.30;;;;;;;;;;5045495;28;20244;-72
2023/03/30 14:15:21;;;;;;;5.13;2.30;;;;;;;;;;5042643;28;20210;-72
2023/03/30 14:17:48;;;;;;;3.83;1.97;;;;;;;;;;5039785;28;20196;-73
2023/03/30 14:20:19;;;;;;;2.50;2.10;;;;;;;;;;5043185;28;20673;-73
2023/03/30 14:22:46;;;;;;;4.30;2.00;;;;;;;;;;5044055;28;20224;-73
2023/03/30 14:25:23;;;;;;;2.97;1.77;;;;;;;;;;5045957;28;20222;-72
2023/03/30 14:27:50;;;;;;;3.50;2.40;;;;;;;;;;5044293;28;20218;-72
2023/03/30 14:30:19;;;;;;;6.90;2.33;;;;;;;;;;5047703;28;20206;-72
2023/03/30 14:32:45;;;;;;;3.37;2.23;;;;;;;;;;5043425;28;20202;-73
2023/03/30 14:35:15;;;;;;;2.80;1.77;;;;;;;;;;5045789;28;20204;-72
2023/03/30 14:37:41;;;;;;;4.33;1.90;;;;;;;;;;5044233;28;20227;-72
2023/03/30 14:40:14;;;;;;;4.23;2.13;;;;;;;;;;5045858;28;20192;-72
2023/03/30 14:42:41;;;;;;;3.50;2.23;;;;;;;;;;5045243;28;20227;-73
2023/03/30 14:45:11;;;;;;;4.97;2.27;;;;;;;;;;5044956;28;20385;-73
2023/03/30 14:47:37;;;;;;;6.13;2.00;;;;;;;;;;5040940;28;20228;-73
2023/03/30 14:50:06;;;;;;;2.43;2.00;;;;;;;;;;5047383;28;20195;-73
2023/03/30 14:52:33;;;;;;;3.13;2.23;;;;;;;;;;5047731;28;20257;-73
2023/03/30 14:54:59;;;;;;;2.73;2.03;;;;;;;;;;5042271;28;20278;-72
2023/03/30 14:57:26;;;;;;;4.47;2.30;;;;;;;;;;5045937;28;20215;-72
2023/03/30 14:59:54;;;;;;;3.90;2.10;;;;;;;;;;5045228;28;20203;-72
2023/03/30 15:02:22;;;;;;;5.43;2.37;;;;;;;;;;5042630;28;20216;-72
2023/03/30 15:04:49;;;;;;;5.43;2.13;;;;;;;;;;5046517;28;20214;-73
2023/03/30 15:07:16;;;;;;;4.27;2.10;;;;;;;;;;5044573;28;20784;-73
2023/03/30 15:09:44;;;;;;;4.00;2.30;;;;;;;;;;5047227;28;20203;-72